createdAt,value
2019-01-08T00:00:22.753Z,15.43
2019-01-08T00:01:23.769Z,16.20
2019-01-08T00:02:24.769Z,13.78
2019-01-08T00:03:25.794Z,16.20
2019-01-08T00:04:26.796Z,13.72
2019-01-08T00:05:27.812Z,15.53
2019-01-08T00:06:28.830Z,14.23
2019-01-08T00:07:29.869Z,17.35
2019-01-08T00:08:30.888Z,15.40
2019-01-08T00:09:31.897Z,17.05
2019-01-08T00:10:32.912Z,11.38
2019-01-08T00:11:33.916Z,15.58
2019-01-08T00:12:34.940Z,12.18
2019-01-08T00:13:35.963Z,17.10
2019-01-08T00:14:37.144Z,14.50
2019-01-08T00:15:38.212Z,13.75
2019-01-08T00:16:39.230Z,14.45
2019-01-08T00:17:40.232Z,13.38
2019-01-08T00:18:41.261Z,17.60
2019-01-08T00:19:42.272Z,14.93
2019-01-08T00:20:43.284Z,16.93
2019-01-08T00:21:44.296Z,14.87
2019-01-08T00:22:45.320Z,15.90
2019-01-08T00:23:46.332Z,15.48
2019-01-08T00:24:47.360Z,13.83
2019-01-08T00:25:48.368Z,14.47
2019-01-08T00:26:49.400Z,13.18
2019-01-08T00:27:50.397Z,15.72
2019-01-08T00:28:51.444Z,12.58
2019-01-08T00:29:52.472Z,17.07
2019-01-08T00:30:53.477Z,14.83
2019-01-08T00:31:54.493Z,13.80
2019-01-08T00:32:55.506Z,12.28
2019-01-08T00:33:56.524Z,16.42
2019-01-08T00:34:57.644Z,12.25
2019-01-08T00:35:58.659Z,15.68
2019-01-08T00:36:59.667Z,14.40
2019-01-08T00:38:00.669Z,13.83
2019-01-08T00:39:01.694Z,10.32
2019-01-08T00:40:04.604Z,14.35
2019-01-08T00:41:05.627Z,15.30
2019-01-08T00:42:06.636Z,13.25
2019-01-08T00:43:07.652Z,14.75
2019-01-08T00:44:08.706Z,17.23
2019-01-08T00:45:09.802Z,16.60
2019-01-08T00:46:10.820Z,15.45
2019-01-08T00:47:11.841Z,16.62
2019-01-08T00:48:12.853Z,13.55
2019-01-08T00:49:13.907Z,18.10
2019-01-08T00:50:14.922Z,15.95
2019-01-08T00:51:15.937Z,17.25
2019-01-08T00:52:16.945Z,12.93
2019-01-08T00:53:17.963Z,16.30
2019-01-08T00:54:19.017Z,14.30
2019-01-08T00:55:20.016Z,16.77
2019-01-08T00:56:21.032Z,18.98
2019-01-08T00:57:22.069Z,14.20
2019-01-08T00:58:23.087Z,15.25
2019-01-08T00:59:24.106Z,16.85
2019-01-08T01:00:25.124Z,14.35
2019-01-08T01:01:26.145Z,15.72
2019-01-08T01:02:27.154Z,15.83
2019-01-08T01:03:28.276Z,17.15
2019-01-08T01:04:29.297Z,10.88
2019-01-08T01:05:30.305Z,16.50
2019-01-08T01:06:31.316Z,12.73
2019-01-08T01:07:32.341Z,13.93
2019-01-08T01:08:33.362Z,14.68
2019-01-08T01:09:34.386Z,16.77
2019-01-08T01:10:35.398Z,12.65
2019-01-08T01:11:36.402Z,12.70
2019-01-08T01:12:37.417Z,13.72
2019-01-08T01:13:38.436Z,14.05
2019-01-08T01:14:39.460Z,14.30
2019-01-08T01:15:42.977Z,15.32
2019-01-08T01:16:44.013Z,12.23
2019-01-08T01:17:45.056Z,13.35
2019-01-08T01:18:46.138Z,14.85
2019-01-08T01:19:47.229Z,13.55
2019-01-08T01:20:48.247Z,13.15
2019-01-08T01:21:49.275Z,12.88
2019-01-08T01:22:50.279Z,11.70
2019-01-08T01:23:51.293Z,13.40
2019-01-08T01:24:52.330Z,14.87
2019-01-08T01:25:53.354Z,13.35
2019-01-08T01:26:54.376Z,11.83
2019-01-08T01:27:55.414Z,13.35
2019-01-08T01:29:00.090Z,10.85
2019-01-08T01:29:59.365Z,12.65
2019-01-08T01:31:00.388Z,14.63
2019-01-08T01:32:01.413Z,11.43
2019-01-08T01:33:02.418Z,15.30
2019-01-08T01:34:03.432Z,12.30
2019-01-08T01:35:04.554Z,11.20
2019-01-08T01:36:05.568Z,12.55
2019-01-08T01:37:06.580Z,14.05
2019-01-08T01:38:07.585Z,9.80
2019-01-08T01:39:08.589Z,13.10
2019-01-08T01:40:09.612Z,11.50
2019-01-08T01:41:10.620Z,12.80
2019-01-08T01:42:11.639Z,11.15
2019-01-08T01:43:12.650Z,11.95
2019-01-08T01:44:13.658Z,10.98
2019-01-08T01:45:14.684Z,11.78
2019-01-08T01:46:15.701Z,12.78
2019-01-08T01:47:16.704Z,12.70
2019-01-08T01:48:17.713Z,10.65
2019-01-08T01:49:18.744Z,13.30
2019-01-08T01:50:19.822Z,10.93
2019-01-08T01:51:20.929Z,13.43
2019-01-08T01:52:21.948Z,10.75
2019-01-08T01:53:22.953Z,14.47
2019-01-08T01:54:23.976Z,13.08
2019-01-08T01:55:25.002Z,12.07
2019-01-08T01:56:26.017Z,11.60
2019-01-08T01:57:27.040Z,14.80
2019-01-08T01:58:28.051Z,10.03
2019-01-08T01:59:29.164Z,12.55
2019-01-08T02:00:30.178Z,9.18
2019-01-08T02:01:31.188Z,12.93
2019-01-08T02:02:32.240Z,12.68
2019-01-08T02:03:33.350Z,10.93
2019-01-08T02:04:34.357Z,11.30
2019-01-08T02:05:35.724Z,7.72
2019-01-08T02:06:36.728Z,11.43
2019-01-08T02:07:37.746Z,11.53
2019-01-08T02:08:38.764Z,12.53
2019-01-08T02:09:39.777Z,12.88
2019-01-08T02:10:40.797Z,12.30
2019-01-08T02:11:41.808Z,14.15
2019-01-08T02:12:42.821Z,13.72
2019-01-08T02:13:43.878Z,12.90
2019-01-08T02:14:44.952Z,10.70
2019-01-08T02:15:45.968Z,12.07
2019-01-08T02:16:46.992Z,11.35
2019-01-08T02:17:47.999Z,15.03
2019-01-08T02:18:49.090Z,11.25
2019-01-08T02:19:50.152Z,13.28
2019-01-08T02:20:51.173Z,9.08
2019-01-08T02:21:52.182Z,11.48
2019-01-08T02:22:53.188Z,10.30
2019-01-08T02:23:54.199Z,14.78
2019-01-08T02:24:55.209Z,11.78
2019-01-08T02:25:56.224Z,11.80
2019-01-08T02:26:57.228Z,11.70
2019-01-08T02:27:58.265Z,11.95
2019-01-08T02:28:59.289Z,12.75
2019-01-08T02:30:00.312Z,12.85
2019-01-08T02:31:01.338Z,10.65
2019-01-08T02:32:02.370Z,11.25
2019-01-08T02:33:03.377Z,13.38
2019-01-08T02:34:04.401Z,10.63
2019-01-08T02:35:05.396Z,10.55
2019-01-08T02:36:06.416Z,11.45
2019-01-08T02:37:07.436Z,11.28
2019-01-08T02:38:08.458Z,11.22
2019-01-08T02:39:09.463Z,9.23
2019-01-08T02:40:10.474Z,11.57
2019-01-08T02:41:11.516Z,13.35
2019-01-08T02:42:12.608Z,15.23
2019-01-08T02:43:13.620Z,11.18
2019-01-08T02:44:15.107Z,13.08
2019-01-08T02:45:16.318Z,13.22
2019-01-08T02:46:17.562Z,11.95
2019-01-08T02:47:18.781Z,11.65
2019-01-08T02:48:19.831Z,13.55
2019-01-08T02:49:20.957Z,10.80
2019-01-08T02:50:21.965Z,11.53
2019-01-08T02:51:22.991Z,11.73
2019-01-08T02:52:24.005Z,14.07
2019-01-08T02:53:26.129Z,10.25
2019-01-08T02:54:27.464Z,11.90
2019-01-08T02:55:28.487Z,9.40
2019-01-08T02:56:29.501Z,12.05
2019-01-08T02:57:30.513Z,9.00
2019-01-08T02:58:31.522Z,12.03
2019-01-08T02:59:32.540Z,8.40
2019-01-08T03:00:33.576Z,12.28
2019-01-08T03:01:34.605Z,10.25
2019-01-08T03:02:35.616Z,11.78
2019-01-08T03:03:36.633Z,9.25
2019-01-08T03:04:37.655Z,11.40
2019-01-08T03:05:38.658Z,10.20
2019-01-08T03:06:39.682Z,11.55
2019-01-08T03:07:40.955Z,9.08
2019-01-08T03:08:42.032Z,11.70
2019-01-08T03:09:43.049Z,8.50
2019-01-08T03:10:44.060Z,9.08
2019-01-08T03:11:45.084Z,9.50
2019-01-08T03:12:46.091Z,11.28
2019-01-08T03:13:47.100Z,7.60
2019-01-08T03:14:48.109Z,10.68
2019-01-08T03:15:49.132Z,8.20
2019-01-08T03:16:50.336Z,10.35
2019-01-08T03:17:51.354Z,9.65
2019-01-08T03:18:52.361Z,9.58
2019-01-08T03:19:53.374Z,10.78
2019-01-08T03:20:54.388Z,9.53
2019-01-08T03:21:55.409Z,11.00
2019-01-08T03:22:56.422Z,10.90
2019-01-08T03:23:57.731Z,9.25
2019-01-08T03:24:58.756Z,8.20
2019-01-08T03:25:59.776Z,10.00
2019-01-08T03:27:00.804Z,7.90
2019-01-08T03:28:01.876Z,9.65
2019-01-08T03:29:02.933Z,9.20
2019-01-08T03:30:05.066Z,9.50
2019-01-08T03:31:06.091Z,8.48
2019-01-08T03:32:07.230Z,10.82
2019-01-08T03:33:08.241Z,7.03
2019-01-08T03:34:09.588Z,10.20
2019-01-08T03:35:10.597Z,8.23
2019-01-08T03:36:11.604Z,9.20
2019-01-08T03:37:12.617Z,7.62
2019-01-08T03:38:13.631Z,9.20
2019-01-08T03:39:14.641Z,7.92
2019-01-08T03:40:15.653Z,8.40
2019-01-08T03:41:16.664Z,6.92
2019-01-08T03:42:17.790Z,9.05
2019-01-08T03:43:18.796Z,6.87
2019-01-08T03:44:19.817Z,9.93
2019-01-08T03:45:20.829Z,12.00
2019-01-08T03:46:21.832Z,8.73
2019-01-08T03:47:22.859Z,7.60
2019-01-08T03:48:23.878Z,10.15
2019-01-08T03:49:24.881Z,8.03
2019-01-08T03:50:26.176Z,8.75
2019-01-08T03:51:27.193Z,9.58
2019-01-08T03:52:28.204Z,6.87
2019-01-08T03:53:29.228Z,9.23
2019-01-08T03:54:30.241Z,7.50
2019-01-08T03:55:31.253Z,9.93
2019-01-08T03:56:32.271Z,6.65
2019-01-08T03:57:33.312Z,9.85
2019-01-08T03:58:34.333Z,6.78
2019-01-08T03:59:41.915Z,9.45
2019-01-08T04:00:38.261Z,8.30
2019-01-08T04:01:39.270Z,7.50
2019-01-08T04:02:40.285Z,8.20
2019-01-08T04:03:41.304Z,10.05
2019-01-08T04:04:42.317Z,9.10
2019-01-08T04:05:43.332Z,8.48
2019-01-08T04:06:44.342Z,7.50
2019-01-08T04:07:45.363Z,7.17
2019-01-08T04:08:46.368Z,8.40
2019-01-08T04:09:47.392Z,7.97
2019-01-08T04:10:48.409Z,8.48
2019-01-08T04:11:49.416Z,8.50
2019-01-08T04:12:50.442Z,8.50
2019-01-08T04:13:51.456Z,8.58
2019-01-08T04:14:52.471Z,8.13
2019-01-08T04:15:53.469Z,8.83
2019-01-08T04:16:54.488Z,8.68
2019-01-08T04:17:55.517Z,8.78
2019-01-08T04:18:56.528Z,9.25
2019-01-08T04:19:57.543Z,7.15
2019-01-08T04:20:58.552Z,7.53
2019-01-08T04:21:59.563Z,7.35
2019-01-08T04:23:00.584Z,10.80
2019-01-08T04:24:03.541Z,7.55
2019-01-08T04:25:04.756Z,8.50
2019-01-08T04:26:05.759Z,8.65
2019-01-08T04:27:06.764Z,7.85
2019-01-08T04:28:07.938Z,7.87
2019-01-08T04:29:08.941Z,8.28
2019-01-08T04:30:09.960Z,8.15
2019-01-08T04:31:10.971Z,6.97
2019-01-08T04:32:11.980Z,9.20
2019-01-08T04:33:13.011Z,6.45
2019-01-08T04:34:14.025Z,8.15
2019-01-08T04:35:15.036Z,7.35
2019-01-08T04:36:16.045Z,8.50
2019-01-08T04:37:17.091Z,7.40
2019-01-08T04:38:18.109Z,7.92
2019-01-08T04:39:19.128Z,7.42
2019-01-08T04:40:20.139Z,9.03
2019-01-08T04:41:21.153Z,7.75
2019-01-08T04:42:22.165Z,9.40
2019-01-08T04:43:23.185Z,6.70
2019-01-08T04:44:24.203Z,8.85
2019-01-08T04:45:25.221Z,7.20
2019-01-08T04:46:26.232Z,8.15
2019-01-08T04:47:27.249Z,9.30
2019-01-08T04:48:28.608Z,8.40
2019-01-08T04:49:29.645Z,7.60
2019-01-08T04:50:30.654Z,7.65
2019-01-08T04:51:31.673Z,7.05
2019-01-08T04:52:32.681Z,7.60
2019-01-08T04:53:33.699Z,6.87
2019-01-08T04:54:34.736Z,8.28
2019-01-08T04:55:35.834Z,8.60
2019-01-08T04:56:37.165Z,7.42
2019-01-08T04:57:38.172Z,7.78
2019-01-08T04:58:39.197Z,5.40
2019-01-08T04:59:40.204Z,8.45
2019-01-08T05:00:41.213Z,6.33
2019-01-08T05:01:42.224Z,8.60
2019-01-08T05:02:43.238Z,8.83
2019-01-08T05:03:44.353Z,9.43
2019-01-08T05:04:45.365Z,8.03
2019-01-08T05:05:46.379Z,11.15
2019-01-08T05:06:47.437Z,7.60
2019-01-08T05:07:48.509Z,9.83
2019-01-08T05:08:50.576Z,6.80
2019-01-08T05:09:51.584Z,8.50
2019-01-08T05:10:52.599Z,8.40
2019-01-08T05:11:53.620Z,8.60
2019-01-08T05:12:54.883Z,9.45
2019-01-08T05:13:55.913Z,9.65
2019-01-08T05:14:56.931Z,6.87
2019-01-08T05:15:57.963Z,8.13
2019-01-08T05:16:59.046Z,5.95
2019-01-08T05:18:00.064Z,7.90
2019-01-08T05:19:01.085Z,6.55
2019-01-08T05:20:02.811Z,9.48
2019-01-08T05:21:03.864Z,8.53
2019-01-08T05:22:04.889Z,6.80
2019-01-08T05:23:05.896Z,10.25
2019-01-08T05:24:06.930Z,7.67
2019-01-08T05:25:07.936Z,9.13
2019-01-08T05:26:08.954Z,7.60
2019-01-08T05:27:09.960Z,8.45
2019-01-08T05:28:10.975Z,6.35
2019-01-08T05:29:12.060Z,8.78
2019-01-08T05:30:13.072Z,7.35
2019-01-08T05:31:14.092Z,8.75
2019-01-08T05:32:15.113Z,6.67
2019-01-08T05:33:16.417Z,7.67
2019-01-08T05:34:17.460Z,8.70
2019-01-08T05:35:18.464Z,7.45
2019-01-08T05:36:19.482Z,7.70
2019-01-08T05:37:20.493Z,7.25
2019-01-08T05:38:21.501Z,9.20
2019-01-08T05:39:22.624Z,6.35
2019-01-08T05:40:23.642Z,9.68
2019-01-08T05:41:24.660Z,7.97
2019-01-08T05:42:25.673Z,9.25
2019-01-08T05:43:26.698Z,6.62
2019-01-08T05:44:27.721Z,10.58
2019-01-08T05:45:28.730Z,6.90
2019-01-08T05:46:29.741Z,9.70
2019-01-08T05:47:30.761Z,7.67
2019-01-08T05:48:31.770Z,7.75
2019-01-08T05:49:32.804Z,6.75
2019-01-08T05:50:33.813Z,9.43
2019-01-08T05:51:34.852Z,6.60
2019-01-08T05:52:35.855Z,7.95
2019-01-08T05:53:36.864Z,6.20
2019-01-08T05:54:37.901Z,10.82
2019-01-08T05:55:38.904Z,6.78
2019-01-08T05:56:40.009Z,9.63
2019-01-08T05:57:41.053Z,7.33
2019-01-08T05:58:42.060Z,9.20
2019-01-08T05:59:43.089Z,7.30
2019-01-08T06:00:44.112Z,9.95
2019-01-08T06:01:45.113Z,8.25
2019-01-08T06:02:46.129Z,9.50
2019-01-08T06:03:47.147Z,7.40
2019-01-08T06:04:48.227Z,11.20
2019-01-08T06:05:49.253Z,6.28
2019-01-08T06:06:50.269Z,8.75
2019-01-08T06:07:51.282Z,7.58
2019-01-08T06:08:53.261Z,9.43
2019-01-08T06:09:54.423Z,7.50
2019-01-08T06:10:55.435Z,9.93
2019-01-08T06:11:56.449Z,7.60
2019-01-08T06:12:57.462Z,11.65
2019-01-08T06:13:58.485Z,7.95
2019-01-08T06:14:59.495Z,9.08
2019-01-08T06:16:00.509Z,8.85
2019-01-08T06:17:01.516Z,8.70
2019-01-08T06:18:02.541Z,10.20
2019-01-08T06:19:03.564Z,9.45
2019-01-08T06:20:04.881Z,8.53
2019-01-08T06:21:05.899Z,10.18
2019-01-08T06:22:06.918Z,7.40
2019-01-08T06:23:07.933Z,9.60
2019-01-08T06:24:08.959Z,8.13
2019-01-08T06:25:09.995Z,9.70
2019-01-08T06:26:11.093Z,8.25
2019-01-08T06:27:12.130Z,10.00
2019-01-08T06:28:13.141Z,9.25
2019-01-08T06:29:14.148Z,9.25
2019-01-08T06:30:15.177Z,9.68
2019-01-08T06:31:16.256Z,11.28
2019-01-08T06:32:17.273Z,9.90
2019-01-08T06:33:18.287Z,9.98
2019-01-08T06:34:19.378Z,10.40
2019-01-08T06:35:20.393Z,8.95
2019-01-08T06:36:21.405Z,9.33
2019-01-08T06:37:22.428Z,10.15
2019-01-08T06:38:23.450Z,9.58
2019-01-08T06:39:24.544Z,8.58
2019-01-08T06:40:25.590Z,12.13
2019-01-08T06:41:26.644Z,8.73
2019-01-08T06:42:27.653Z,10.63
2019-01-08T06:43:28.684Z,8.50
2019-01-08T06:44:29.700Z,9.50
2019-01-08T06:45:30.724Z,6.80
2019-01-08T06:46:31.794Z,10.05
2019-01-08T06:47:32.848Z,7.47
2019-01-08T06:48:33.873Z,10.95
2019-01-08T06:49:34.906Z,8.28
2019-01-08T06:50:35.941Z,10.10
2019-01-08T06:51:36.957Z,8.20
2019-01-08T06:52:37.986Z,8.55
2019-01-08T06:53:38.994Z,6.97
2019-01-08T06:54:40.005Z,10.48
2019-01-08T06:55:41.025Z,6.62
2019-01-08T06:56:42.034Z,8.83
2019-01-08T06:57:43.052Z,6.85
2019-01-08T06:58:44.064Z,11.40
2019-01-08T06:59:45.088Z,7.37
2019-01-08T07:00:46.111Z,10.15
2019-01-08T07:01:47.133Z,6.62
2019-01-08T07:02:48.149Z,8.85
2019-01-08T07:03:49.202Z,6.90
2019-01-08T07:04:50.288Z,9.93
2019-01-08T07:05:51.308Z,8.90
2019-01-08T07:06:52.361Z,10.60
2019-01-08T07:07:53.387Z,8.55
2019-01-08T07:08:54.412Z,10.03
2019-01-08T07:09:55.434Z,9.40
2019-01-08T07:10:56.460Z,9.30
2019-01-08T07:11:57.473Z,9.98
2019-01-08T07:12:58.491Z,11.78
2019-01-08T07:13:59.499Z,9.18
2019-01-08T07:15:00.541Z,9.48
2019-01-08T07:16:01.641Z,9.00
2019-01-08T07:17:02.653Z,8.18
2019-01-08T07:18:03.675Z,9.75
2019-01-08T07:19:04.697Z,8.83
2019-01-08T07:20:06.315Z,9.70
2019-01-08T07:21:07.339Z,8.90
2019-01-08T07:22:08.353Z,8.93
2019-01-08T07:23:09.364Z,9.30
2019-01-08T07:24:10.401Z,8.73
2019-01-08T07:25:11.613Z,9.38
2019-01-08T07:26:12.626Z,8.43
2019-01-08T07:27:16.493Z,9.58
2019-01-08T07:28:16.591Z,9.15
2019-01-08T07:29:17.593Z,10.63
2019-01-08T07:30:18.720Z,9.40
2019-01-08T07:31:19.741Z,8.68
2019-01-08T07:32:20.777Z,10.25
2019-01-08T07:33:21.797Z,9.48
2019-01-08T07:34:24.527Z,10.82
2019-01-08T07:35:25.732Z,9.23
2019-01-08T07:36:26.754Z,10.82
2019-01-08T07:37:27.760Z,8.65
2019-01-08T07:38:28.769Z,9.55
2019-01-08T07:39:29.825Z,7.45
2019-01-08T07:40:30.853Z,9.03
2019-01-08T07:41:31.873Z,7.20
2019-01-08T07:42:32.900Z,10.55
2019-01-08T07:43:33.900Z,8.18
2019-01-08T07:44:34.941Z,11.88
2019-01-08T07:45:35.945Z,8.20
2019-01-08T07:46:36.976Z,9.38
2019-01-08T07:47:37.993Z,8.58
2019-01-08T07:48:39.009Z,8.23
2019-01-08T07:49:40.028Z,8.35
2019-01-08T07:50:41.037Z,10.35
2019-01-08T07:51:42.061Z,9.50
2019-01-08T07:52:43.102Z,10.35
2019-01-08T07:53:44.109Z,9.55
2019-01-08T07:54:45.133Z,9.63
2019-01-08T07:55:46.134Z,9.30
2019-01-08T07:56:47.180Z,8.85
2019-01-08T07:57:48.244Z,12.70
2019-01-08T07:58:49.322Z,10.28
2019-01-08T07:59:50.453Z,10.35
2019-01-08T08:00:51.495Z,7.28
2019-01-08T08:01:52.504Z,9.15
2019-01-08T08:02:53.518Z,12.37
2019-01-08T08:03:54.533Z,11.68
2019-01-08T08:04:55.544Z,8.45
2019-01-08T08:05:56.578Z,10.20
2019-01-08T08:06:57.581Z,7.53
2019-01-08T08:07:58.590Z,8.83
2019-01-08T08:08:59.608Z,8.18
2019-01-08T08:10:02.033Z,9.70
2019-01-08T08:11:03.041Z,8.88
2019-01-08T08:12:04.096Z,8.78
2019-01-08T08:13:05.124Z,9.68
2019-01-08T08:14:06.459Z,8.55
2019-01-08T08:15:07.616Z,7.75
2019-01-08T08:16:08.688Z,10.10
2019-01-08T08:17:09.689Z,7.03
2019-01-08T08:18:10.937Z,8.60
2019-01-08T08:19:11.972Z,9.95
2019-01-08T08:20:12.976Z,7.28
2019-01-08T08:21:14.041Z,9.25
2019-01-08T08:22:15.112Z,9.50
2019-01-08T08:23:16.112Z,9.28
2019-01-08T08:24:17.133Z,9.30
2019-01-08T08:25:18.152Z,10.82
2019-01-08T08:26:19.387Z,10.55
2019-01-08T08:27:20.458Z,9.90
2019-01-08T08:28:21.477Z,8.75
2019-01-08T08:29:22.498Z,10.93
2019-01-08T08:30:23.501Z,8.13
2019-01-08T08:31:24.516Z,9.98
2019-01-08T08:32:25.526Z,8.53
2019-01-08T08:33:26.548Z,10.78
2019-01-08T08:34:29.466Z,11.48
2019-01-08T08:35:30.486Z,9.60
2019-01-08T08:36:31.513Z,10.60
2019-01-08T08:37:32.536Z,9.55
2019-01-08T08:38:33.561Z,9.63
2019-01-08T08:39:34.642Z,9.70
2019-01-08T08:40:35.664Z,11.55
2019-01-08T08:41:36.741Z,8.33
2019-01-08T08:42:37.747Z,10.93
2019-01-08T08:43:38.757Z,8.38
2019-01-08T08:44:39.781Z,9.23
2019-01-08T08:45:40.786Z,7.25
2019-01-08T08:46:41.808Z,8.58
2019-01-08T08:47:42.821Z,8.65
2019-01-08T08:48:43.843Z,9.80
2019-01-08T08:49:44.848Z,7.28
2019-01-08T08:50:45.888Z,8.58
2019-01-08T08:51:46.922Z,7.05
2019-01-08T08:52:47.988Z,8.25
2019-01-08T08:53:52.681Z,8.00
2019-01-08T08:54:51.938Z,9.18
2019-01-08T08:55:52.949Z,8.53
2019-01-08T08:56:53.977Z,7.80
2019-01-08T08:57:54.992Z,8.75
2019-01-08T08:58:56.015Z,8.75
2019-01-08T08:59:57.022Z,7.65
2019-01-08T09:00:58.037Z,7.80
2019-01-08T09:01:59.073Z,9.05
2019-01-08T09:03:00.084Z,10.38
2019-01-08T09:04:01.116Z,9.08
2019-01-08T09:05:02.157Z,8.90
2019-01-08T09:06:03.168Z,9.40
2019-01-08T09:07:04.253Z,8.23
2019-01-08T09:08:05.342Z,8.93
2019-01-08T09:09:06.349Z,7.08
2019-01-08T09:10:07.365Z,9.28
2019-01-08T09:11:08.392Z,8.03
2019-01-08T09:12:09.441Z,10.03
2019-01-08T09:13:10.460Z,8.78
2019-01-08T09:14:11.680Z,8.08
2019-01-08T09:15:12.696Z,7.25
2019-01-08T09:16:13.717Z,8.75
2019-01-08T09:17:14.732Z,7.35
2019-01-08T09:18:15.765Z,9.50
2019-01-08T09:19:16.888Z,6.70
2019-01-08T09:20:17.899Z,10.55
2019-01-08T09:21:19.166Z,10.03
2019-01-08T09:22:20.251Z,11.25
2019-01-08T09:23:21.256Z,12.68
2019-01-08T09:24:22.269Z,8.18
2019-01-08T09:25:23.284Z,10.08
2019-01-08T09:26:24.301Z,7.20
2019-01-08T09:27:25.329Z,9.15
2019-01-08T09:28:26.340Z,8.70
2019-01-08T09:29:27.371Z,10.18
2019-01-08T09:30:28.360Z,8.60
2019-01-08T09:31:29.377Z,8.80
2019-01-08T09:32:30.396Z,8.03
2019-01-08T09:33:31.409Z,10.00
2019-01-08T09:34:32.411Z,7.10
2019-01-08T09:35:33.565Z,9.13
2019-01-08T09:36:34.724Z,10.00
2019-01-08T09:37:35.732Z,8.45
2019-01-08T09:38:36.740Z,8.98
2019-01-08T09:39:37.825Z,7.45
2019-01-08T09:40:38.842Z,9.45
2019-01-08T09:41:39.885Z,7.03
2019-01-08T09:42:42.777Z,9.55
2019-01-08T09:43:43.819Z,10.50
2019-01-08T09:44:44.828Z,9.65
2019-01-08T09:45:45.840Z,7.72
2019-01-08T09:46:46.878Z,10.35
2019-01-08T09:47:47.908Z,8.35
2019-01-08T09:48:49.063Z,9.98
2019-01-08T09:49:50.108Z,10.65
2019-01-08T09:50:51.113Z,8.88
2019-01-08T09:51:52.257Z,10.78
2019-01-08T09:52:53.332Z,10.35
2019-01-08T09:53:54.365Z,10.20
2019-01-08T09:54:55.405Z,8.60
2019-01-08T09:55:56.434Z,10.50
2019-01-08T09:56:57.452Z,8.13
2019-01-08T09:57:58.521Z,9.68
2019-01-08T09:58:59.546Z,9.95
2019-01-08T10:00:00.549Z,10.35
2019-01-08T10:01:01.578Z,9.30
2019-01-08T10:02:02.700Z,8.53
2019-01-08T10:03:03.713Z,11.08
2019-01-08T10:04:04.772Z,7.17
2019-01-08T10:05:05.981Z,10.32
2019-01-08T10:06:07.013Z,8.38
2019-01-08T10:07:08.033Z,9.60
2019-01-08T10:09:22.125Z,11.65
2019-01-08T10:10:23.144Z,8.05
2019-01-08T10:11:24.174Z,12.13
2019-01-08T10:12:25.188Z,12.00
2019-01-08T10:13:26.224Z,7.90
2019-01-08T10:14:27.240Z,10.13
2019-01-08T10:15:28.277Z,8.95
2019-01-08T10:16:29.280Z,8.65
2019-01-08T10:17:30.865Z,8.43
2019-01-08T10:18:31.889Z,10.08
2019-01-08T10:19:32.893Z,8.60
2019-01-08T10:20:33.907Z,10.25
2019-01-08T10:21:34.912Z,11.40
2019-01-08T10:22:36.008Z,10.70
2019-01-08T10:23:37.049Z,9.83
2019-01-08T10:24:38.137Z,10.68
2019-01-08T10:25:39.170Z,11.05
2019-01-08T10:26:40.185Z,7.62
2019-01-08T10:27:41.204Z,10.53
2019-01-08T10:28:42.248Z,10.25
2019-01-08T10:29:43.337Z,11.10
2019-01-08T10:30:44.349Z,8.28
2019-01-08T10:31:45.362Z,9.58
2019-01-08T10:32:46.392Z,12.23
2019-01-08T10:33:47.404Z,10.35
2019-01-08T10:34:48.434Z,9.35
2019-01-08T10:35:49.452Z,10.18
2019-01-08T10:36:50.463Z,9.95
2019-01-08T10:37:51.485Z,11.05
2019-01-08T10:38:52.493Z,8.23
2019-01-08T10:39:53.509Z,9.90
2019-01-08T10:40:54.529Z,10.48
2019-01-08T10:41:55.540Z,9.70
2019-01-08T10:42:56.560Z,12.33
2019-01-08T10:43:57.560Z,11.65
2019-01-08T10:44:58.624Z,8.45
2019-01-08T10:45:59.644Z,8.65
2019-01-08T10:47:00.658Z,10.08
2019-01-08T10:48:02.024Z,6.72
2019-01-08T10:49:03.281Z,10.55
2019-01-08T10:50:06.100Z,7.97
2019-01-08T10:51:07.110Z,6.10
2019-01-08T10:52:08.230Z,8.78
2019-01-08T10:53:09.245Z,9.53
2019-01-08T10:54:10.305Z,10.95
2019-01-08T10:55:11.320Z,11.30
2019-01-08T10:56:12.333Z,7.92
2019-01-08T10:57:13.345Z,8.90
2019-01-08T10:58:14.369Z,11.12
2019-01-08T10:59:15.376Z,11.73
2019-01-08T11:00:16.386Z,10.88
2019-01-08T11:01:17.392Z,8.63
2019-01-08T11:02:18.400Z,9.95
2019-01-08T11:03:19.424Z,10.70
2019-01-08T11:04:20.433Z,9.10
2019-01-08T11:05:21.484Z,9.18
2019-01-08T11:06:22.517Z,8.78
2019-01-08T11:07:23.534Z,9.28
2019-01-08T11:08:24.676Z,9.48
2019-01-08T11:09:25.687Z,10.85
2019-01-08T11:10:26.709Z,9.60
2019-01-08T11:11:27.741Z,9.03
2019-01-08T11:12:28.746Z,8.50
2019-01-08T11:13:29.776Z,10.60
2019-01-08T11:14:30.785Z,11.90
2019-01-08T11:15:31.806Z,14.78
2019-01-08T11:16:32.812Z,10.65
2019-01-08T11:17:33.820Z,10.28
2019-01-08T11:18:34.864Z,9.48
2019-01-08T11:19:35.890Z,9.98
2019-01-08T11:20:36.905Z,7.85
2019-01-08T11:21:37.908Z,10.85
2019-01-08T11:22:38.917Z,10.95
2019-01-08T11:23:39.945Z,7.90
2019-01-08T11:24:40.953Z,10.43
2019-01-08T11:25:41.965Z,9.65
2019-01-08T11:26:42.978Z,13.55
2019-01-08T11:27:44.005Z,7.47
2019-01-08T11:28:45.303Z,10.28
2019-01-08T11:29:46.309Z,9.60
2019-01-08T11:30:47.323Z,10.05
2019-01-08T11:31:49.058Z,8.20
2019-01-08T11:32:50.341Z,11.00
2019-01-08T11:33:51.398Z,9.98
2019-01-08T11:34:52.410Z,9.93
2019-01-08T11:35:53.443Z,12.03
2019-01-08T11:36:54.450Z,11.25
2019-01-08T11:37:55.468Z,10.35
2019-01-08T11:38:56.485Z,10.58
2019-01-08T11:39:57.505Z,10.75
2019-01-08T11:40:58.515Z,8.88
2019-01-08T11:41:59.548Z,9.35
2019-01-08T11:43:00.584Z,11.68
2019-01-08T11:44:01.628Z,9.68
2019-01-08T11:45:04.845Z,8.90
2019-01-08T11:46:05.860Z,9.90
2019-01-08T11:47:06.890Z,10.13
2019-01-08T11:48:07.897Z,8.50
2019-01-08T11:49:08.930Z,11.50
2019-01-08T11:50:09.940Z,7.83
2019-01-08T11:51:11.057Z,10.10
2019-01-08T11:52:12.113Z,11.83
2019-01-08T11:53:13.126Z,9.65
2019-01-08T11:54:14.152Z,9.93
2019-01-08T11:55:15.186Z,9.08
2019-01-08T11:56:16.178Z,11.43
2019-01-08T11:57:17.221Z,9.50
2019-01-08T11:58:18.235Z,9.23
2019-01-08T11:59:19.269Z,11.85
2019-01-08T12:00:22.384Z,10.88
2019-01-08T12:01:23.410Z,9.00
2019-01-08T12:02:24.426Z,9.90
2019-01-08T12:03:25.441Z,7.85
2019-01-08T12:04:26.467Z,10.80
2019-01-08T12:05:27.484Z,10.15
2019-01-08T12:06:28.496Z,7.83
2019-01-08T12:07:31.350Z,10.00
2019-01-08T12:08:32.697Z,11.33
2019-01-08T12:09:33.776Z,8.90
2019-01-08T12:10:34.897Z,10.28
2019-01-08T12:11:35.997Z,8.80
2019-01-08T12:12:37.011Z,10.55
2019-01-08T12:13:38.020Z,10.23
2019-01-08T12:14:39.060Z,10.50
2019-01-08T12:15:40.075Z,10.45
2019-01-08T12:16:41.090Z,7.67
2019-01-08T12:17:42.096Z,11.97
2019-01-08T12:18:43.109Z,9.48
2019-01-08T12:19:44.134Z,9.55
2019-01-08T12:20:45.129Z,11.43
2019-01-08T12:21:46.165Z,8.85
2019-01-08T12:22:47.185Z,10.15
2019-01-08T12:23:48.212Z,8.08
2019-01-08T12:24:49.237Z,9.28
2019-01-08T12:25:50.261Z,7.08
2019-01-08T12:26:51.270Z,9.23
2019-01-08T12:27:52.288Z,8.30
2019-01-08T12:28:53.297Z,10.20
2019-01-08T12:29:54.318Z,8.63
2019-01-08T12:30:55.384Z,10.18
2019-01-08T12:31:56.398Z,9.18
2019-01-08T12:32:57.406Z,10.93
2019-01-08T12:33:58.414Z,7.85
2019-01-08T12:34:59.460Z,9.18
2019-01-08T12:36:00.497Z,8.60
2019-01-08T12:37:01.504Z,10.45
2019-01-08T12:38:02.509Z,8.45
2019-01-08T12:39:04.965Z,11.57
2019-01-08T12:40:06.009Z,8.93
2019-01-08T12:41:07.032Z,11.10
2019-01-08T12:42:08.028Z,9.88
2019-01-08T12:43:09.061Z,10.80
2019-01-08T12:44:10.073Z,7.45
2019-01-08T12:45:11.136Z,10.98
2019-01-08T12:46:12.183Z,10.05
2019-01-08T12:47:13.184Z,10.68
2019-01-08T12:48:14.220Z,6.85
2019-01-08T12:49:15.236Z,10.35
2019-01-08T12:50:16.258Z,8.08
2019-01-08T12:51:17.265Z,9.83
2019-01-08T12:52:18.269Z,8.53
2019-01-08T12:53:19.272Z,9.85
2019-01-08T12:54:20.293Z,10.35
2019-01-08T12:55:21.320Z,10.23
2019-01-08T12:56:22.352Z,7.53
2019-01-08T12:57:23.445Z,9.85
2019-01-08T12:58:24.474Z,8.90
2019-01-08T12:59:25.485Z,11.10
2019-01-08T13:00:26.535Z,9.20
2019-01-08T13:01:27.554Z,8.25
2019-01-08T13:02:28.566Z,7.97
2019-01-08T13:03:29.580Z,9.98
2019-01-08T13:04:30.885Z,10.53
2019-01-08T13:05:31.915Z,9.43
2019-01-08T13:06:32.915Z,9.58
2019-01-08T13:07:34.608Z,9.00
2019-01-08T13:08:35.604Z,11.22
2019-01-08T13:09:36.620Z,8.25
2019-01-08T13:10:37.644Z,10.55
2019-01-08T13:11:38.662Z,8.38
2019-01-08T13:12:39.668Z,9.30
2019-01-08T13:13:40.673Z,8.85
2019-01-08T13:14:41.689Z,10.13
2019-01-08T13:15:42.705Z,8.85
2019-01-08T13:16:44.053Z,13.30
2019-01-08T13:17:45.245Z,10.65
2019-01-08T13:18:46.272Z,8.33
2019-01-08T13:19:47.292Z,7.65
2019-01-08T13:20:48.500Z,8.28
2019-01-08T13:21:49.516Z,10.95
2019-01-08T13:22:50.536Z,9.30